Terminal Aerodrome Forecast
Issued by NWS Milwaukee/Sullivan, WI

Home | Current Version | Previous Version | Text Only | Print | Product List | Glossary On
Versions: 1 2 3 4 5 6 7 8 9 10 11 12 13 14 15 16 17 18 19 20 21 22 23
000
FTUS43 KMKX 191726
TAFMSN
TAF
KMSN 191726Z 1918/2018 09007KT P6SM FEW200
     FM200500 14006KT P6SM FEW200
     FM201100 15007KT P6SM BKN130
     FM201300 15009KT P6SM BKN120 WS020/18030KT
     FM201500 16011KT P6SM BKN090=

USA.gov is the U.S. government's official web portal to all federal, state and local government web resources and services.